Time;durP1;ratioP1;P1;durP2;ratioP2;P2;SDS_P1;SDS_P2;PMS_P1;PMS_P2;Temp;Humidity;BMP_temperature;BMP_pressure;BME280_temperature;BME280_humidity;BME280_pressure;Samples;Min_cycle;Max_cycle;Signal;HPM_P1;HPM_P2
2023/08/04 00:00:09;;;;;;;3.13;0.90;;;15.00;99.90;;;;;;5071653;28;20200;-56
2023/08/04 00:02:36;;;;;;;5.50;0.87;;;15.00;99.90;;;;;;5071994;28;20317;-56
2023/08/04 00:05:06;;;;;;;1.63;0.80;;;15.00;99.90;;;;;;5071757;28;20260;-56
2023/08/04 00:07:34;;;;;;;2.37;0.80;;;15.00;99.90;;;;;;5071576;28;20208;-56
2023/08/04 00:10:01;;;;;;;6.00;0.83;;;14.90;99.90;;;;;;5071638;28;20702;-56
2023/08/04 00:12:28;;;;;;;4.85;1.40;;;14.80;99.90;;;;;;5071739;28;20411;-56
2023/08/04 00:14:54;;;;;;;1.93;0.80;;;14.70;99.90;;;;;;5071308;28;20323;-55
2023/08/04 00:17:21;;;;;;;1.73;1.10;;;14.70;99.90;;;;;;5071634;28;20208;-56
2023/08/04 00:19:48;;;;;;;4.00;1.20;;;14.80;99.90;;;;;;5071677;28;20205;-57
2023/08/04 00:22:16;;;;;;;1.40;0.80;;;14.80;99.90;;;;;;5071695;28;20580;-57
2023/08/04 00:24:42;;;;;;;1.10;0.70;;;14.90;99.90;;;;;;5071425;28;20373;-57
2023/08/04 00:27:09;;;;;;;4.77;1.27;;;14.90;99.90;;;;;;5071349;28;20345;-55
2023/08/04 00:29:36;;;;;;;1.90;1.00;;;14.90;99.90;;;;;;5071484;28;20219;-56
2023/08/04 00:32:03;;;;;;;1.00;0.70;;;14.80;99.90;;;;;;5071442;28;20205;-57
2023/08/04 00:34:30;;;;;;;1.80;0.80;;;14.80;99.90;;;;;;5087925;22;20236;-61
2023/08/04 00:36:56;;;;;;;1.87;0.87;;;14.70;99.90;;;;;;5050800;28;20669;-60
2023/08/04 00:39:24;;;;;;;2.40;1.07;;;14.70;99.90;;;;;;5051154;28;20275;-61
2023/08/04 00:41:51;;;;;;;5.03;1.00;;;14.60;99.90;;;;;;5050991;28;20267;-61
2023/08/04 00:44:18;;;;;;;2.27;0.80;;;14.60;99.90;;;;;;5051153;28;20570;-61
2023/08/04 00:46:45;;;;;;;1.17;0.70;;;14.70;99.90;;;;;;5051024;28;20210;-61
2023/08/04 00:49:12;;;;;;;1.80;0.90;;;14.70;99.90;;;;;;5051109;28;20210;-60
2023/08/04 00:51:40;;;;;;;2.60;1.13;;;14.80;99.90;;;;;;5052700;28;20297;-59
2023/08/04 00:54:08;;;;;;;1.57;0.90;;;14.80;99.90;;;;;;5054651;28;20241;-59
2023/08/04 00:56:37;;;;;;;1.97;0.90;;;14.80;99.90;;;;;;5054282;28;20205;-60
2023/08/04 00:59:04;;;;;;;3.30;0.95;;;14.90;99.90;;;;;;5055000;28;20209;-59
2023/08/04 01:01:31;;;;;;;1.87;0.70;;;14.80;99.90;;;;;;5054731;28;20373;-60
2023/08/04 01:03:58;;;;;;;2.13;0.80;;;14.90;99.90;;;;;;5054567;28;20558;-59
2023/08/04 01:06:32;;;;;;;1.77;0.77;;;14.90;99.90;;;;;;5054512;28;20202;-59
2023/08/04 01:09:03;;;;;;;2.28;0.90;;;15.00;99.90;;;;;;5054794;28;20637;-60
2023/08/04 01:11:40;;;;;;;1.97;0.93;;;15.10;99.90;;;;;;5054640;28;20214;-60
2023/08/04 01:14:10;;;;;;;2.07;0.73;;;15.10;99.90;;;;;;5054415;28;20288;-59
2023/08/04 01:16:36;;;;;;;2.83;0.82;;;15.10;99.90;;;;;;5053945;28;20669;-61
2023/08/04 01:19:03;;;;;;;1.43;0.73;;;15.10;99.90;;;;;;5054231;28;20202;-59
2023/08/04 01:21:40;;;;;;;5.50;1.13;;;15.20;99.90;;;;;;5054095;28;20669;-61
2023/08/04 01:24:06;;;;;;;3.80;1.37;;;15.20;99.90;;;;;;5054350;28;20260;-59
2023/08/04 01:26:35;;;;;;;2.13;1.00;;;15.10;99.90;;;;;;5053718;28;20574;-60
2023/08/04 01:29:03;;;;;;;1.87;1.03;;;15.10;99.90;;;;;;5054104;28;20209;-62
2023/08/04 01:31:30;;;;;;;2.23;1.00;;;15.10;99.90;;;;;;5053994;28;20586;-60
2023/08/04 01:33:57;;;;;;;3.17;0.93;;;15.10;99.90;;;;;;5053472;28;20304;-60
2023/08/04 01:36:23;;;;;;;5.87;1.10;;;15.20;99.90;;;;;;5053912;28;20211;-60
2023/08/04 01:38:51;;;;;;;1.63;0.88;;;15.30;99.90;;;;;;5053980;28;20205;-60
2023/08/04 01:41:18;;;;;;;2.57;0.73;;;15.30;99.90;;;;;;5053966;28;20202;-60
2023/08/04 01:43:45;;;;;;;2.08;0.90;;;15.30;99.90;;;;;;5053688;28;20578;-59
2023/08/04 01:46:11;;;;;;;2.13;0.80;;;15.30;99.90;;;;;;5053370;28;20229;-60
2023/08/04 01:48:38;;;;;;;3.87;2.03;;;15.30;99.90;;;;;;5053567;28;20643;-59
2023/08/04 01:51:05;;;;;;;2.42;0.90;;;15.40;99.90;;;;;;5053755;28;20205;-59
2023/08/04 01:53:31;;;;;;;2.70;1.13;;;15.40;99.90;;;;;;5053841;28;20218;-60
2023/08/04 01:55:59;;;;;;;4.23;0.90;;;15.40;99.90;;;;;;5053159;28;20226;-60
2023/08/04 01:58:26;;;;;;;3.95;1.10;;;15.30;99.90;;;;;;5053542;28;20209;-60
2023/08/04 02:00:53;;;;;;;1.95;0.80;;;15.30;99.90;;;;;;5053900;28;20213;-59
2023/08/04 02:03:20;;;;;;;0.77;0.70;;;15.30;99.90;;;;;;5052383;28;20202;-60
2023/08/04 02:05:48;;;;;;;5.13;1.10;;;15.10;99.90;;;;;;5053360;28;20317;-60
2023/08/04 02:08:15;;;;;;;2.33;0.98;;;15.00;99.90;;;;;;5053341;28;20205;-59
2023/08/04 02:10:48;;;;;;;1.58;0.70;;;14.90;99.90;;;;;;5053339;28;20210;-60
2023/08/04 02:13:16;;;;;;;1.93;1.00;;;14.90;99.90;;;;;;5053307;28;20205;-60
2023/08/04 02:15:42;;;;;;;1.53;0.90;;;14.90;99.90;;;;;;5052773;28;20374;-60
2023/08/04 02:18:09;;;;;;;1.50;0.75;;;15.00;99.90;;;;;;5053033;28;20689;-60
2023/08/04 02:20:36;;;;;;;4.10;1.17;;;15.10;99.90;;;;;;5052960;28;20578;-60
2023/08/04 02:23:02;;;;;;;3.13;1.80;;;15.20;99.90;;;;;;5053104;28;20214;-60
2023/08/04 02:25:29;;;;;;;4.53;0.80;;;15.20;99.90;;;;;;5052943;28;20228;-59
2023/08/04 02:27:56;;;;;;;3.27;1.00;;;15.30;99.90;;;;;;5052677;28;20213;-60
2023/08/04 02:30:24;;;;;;;1.33;0.90;;;15.30;99.90;;;;;;5052820;28;20212;-60
2023/08/04 02:32:50;;;;;;;1.98;0.82;;;15.30;99.90;;;;;;5053007;28;20201;-60
2023/08/04 02:35:17;;;;;;;1.40;0.63;;;15.30;99.90;;;;;;5052480;28;20229;-60
2023/08/04 02:37:44;;;;;;;0.83;0.80;;;15.30;99.90;;;;;;5052544;28;20669;-59
2023/08/04 02:40:11;;;;;;;5.50;1.00;;;15.30;99.90;;;;;;5052736;28;20205;-59
2023/08/04 02:42:38;;;;;;;2.10;0.90;;;15.40;99.90;;;;;;5052805;28;20210;-59
2023/08/04 02:45:06;;;;;;;4.93;1.17;;;15.40;99.90;;;;;;5052868;28;20248;-59
2023/08/04 02:47:36;;;;;;;1.30;1.00;;;15.50;99.90;;;;;;5052641;28;20225;-59
2023/08/04 02:50:03;;;;;;;3.38;1.25;;;15.40;99.90;;;;;;5053747;28;20232;-59
2023/08/04 02:52:30;;;;;;;2.33;0.77;;;15.40;99.90;;;;;;5052998;28;20209;-59
2023/08/04 02:54:57;;;;;;;2.30;1.10;;;15.30;99.90;;;;;;5052418;28;20614;-59
2023/08/04 02:57:28;;;;;;;1.77;0.80;;;15.30;99.90;;;;;;5052073;28;20212;-59
2023/08/04 02:59:54;;;;;;;3.03;0.80;;;15.30;99.90;;;;;;5052675;28;20209;-60
2023/08/04 03:02:21;;;;;;;2.20;1.07;;;15.20;99.90;;;;;;5052444;28;20209;-60
2023/08/04 03:04:49;;;;;;;3.70;0.97;;;15.20;99.90;;;;;;5052225;28;20224;-60
2023/08/04 03:07:16;;;;;;;1.03;0.80;;;15.20;99.90;;;;;;5051901;28;20205;-61
2023/08/04 03:09:42;;;;;;;1.67;0.87;;;15.10;99.90;;;;;;5051975;28;20217;-59
2023/08/04 03:12:09;;;;;;;1.20;0.77;;;15.10;99.90;;;;;;5052253;28;20229;-60
2023/08/04 03:14:36;;;;;;;3.00;1.03;;;15.00;99.90;;;;;;5051888;28;20252;-60
2023/08/04 03:17:03;;;;;;;1.37;0.80;;;15.10;99.90;;;;;;5051704;28;20673;-59
2023/08/04 03:19:30;;;;;;;1.37;0.80;;;15.10;99.90;;;;;;5052073;28;20232;-60
2023/08/04 03:21:58;;;;;;;7.47;1.20;;;15.20;99.90;;;;;;5051905;28;20221;-60
2023/08/04 03:24:24;;;;;;;2.20;0.93;;;15.30;99.90;;;;;;5051657;28;20229;-60
2023/08/04 03:26:51;;;;;;;2.23;0.70;;;15.40;99.90;;;;;;5051837;28;20209;-60
2023/08/04 03:29:17;;;;;;;2.88;1.33;;;15.50;99.90;;;;;;5051992;28;20205;-60
2023/08/04 03:31:44;;;;;;;2.53;1.00;;;15.60;99.90;;;;;;5051988;28;20220;-60
2023/08/04 03:34:11;;;;;;;1.00;0.70;;;15.60;99.90;;;;;;5051542;28;20272;-60
2023/08/04 03:36:38;;;;;;;2.67;0.90;;;15.60;99.90;;;;;;5051485;28;20206;-60
2023/08/04 03:39:05;;;;;;;1.97;0.83;;;15.70;99.90;;;;;;5051568;28;20216;-61
2023/08/04 03:41:32;;;;;;;1.87;1.07;;;15.70;99.90;;;;;;5051890;28;20601;-61
2023/08/04 03:43:59;;;;;;;2.58;1.00;;;15.70;99.90;;;;;;5052007;28;20210;-59
2023/08/04 03:46:25;;;;;;;5.40;0.95;;;15.80;99.90;;;;;;5051547;28;20208;-59
2023/08/04 03:48:52;;;;;;;5.03;0.98;;;15.70;99.90;;;;;;5051895;28;20234;-60
2023/08/04 03:51:19;;;;;;;2.45;1.05;;;15.70;99.90;;;;;;5051621;28;20201;-60
2023/08/04 03:53:46;;;;;;;1.27;0.90;;;15.60;99.90;;;;;;5051683;28;20296;-61
2023/08/04 03:56:14;;;;;;;2.83;1.10;;;15.50;99.90;;;;;;5051249;28;20705;-61
2023/08/04 03:58:41;;;;;;;3.05;1.00;;;15.40;99.90;;;;;;5051651;28;20357;-61
2023/08/04 04:01:08;;;;;;;2.20;1.00;;;15.40;99.90;;;;;;5051588;28;20209;-61
2023/08/04 04:03:34;;;;;;;1.00;0.90;;;15.30;99.90;;;;;;5051448;28;20551;-59
2023/08/04 04:06:01;;;;;;;2.47;0.97;;;15.30;99.90;;;;;;5051008;28;20248;-58
2023/08/04 04:08:28;;;;;;;4.83;1.20;;;15.40;99.90;;;;;;5051550;28;20209;-61
2023/08/04 04:10:55;;;;;;;1.87;0.87;;;15.40;99.90;;;;;;5051751;28;20209;-61
2023/08/04 04:13:24;;;;;;;3.33;1.20;;;15.40;99.90;;;;;;5051527;28;20240;-60
2023/08/04 04:15:50;;;;;;;2.17;0.90;;;15.40;99.90;;;;;;5051109;28;20271;-60
2023/08/04 04:18:17;;;;;;;1.50;0.90;;;15.50;99.90;;;;;;5051346;28;20210;-58
2023/08/04 04:20:43;;;;;;;2.67;1.10;;;15.50;99.90;;;;;;5051201;28;20213;-60
2023/08/04 04:23:10;;;;;;;1.73;0.90;;;15.50;99.90;;;;;;5051416;28;20263;-59
2023/08/04 04:25:37;;;;;;;2.97;1.00;;;15.60;99.90;;;;;;5051383;28;20233;-59
2023/08/04 04:28:04;;;;;;;1.60;0.80;;;15.60;99.90;;;;;;5055114;28;20212;-59
2023/08/04 04:30:32;;;;;;;4.53;1.40;;;15.60;99.90;;;;;;5055129;28;20210;-59
2023/08/04 04:32:59;;;;;;;2.30;0.93;;;15.70;99.90;;;;;;5054998;28;20791;-59
2023/08/04 04:35:26;;;;;;;2.65;1.08;;;15.60;99.90;;;;;;5054543;28;20715;-59
2023/08/04 04:37:52;;;;;;;0.60;0.60;;;15.60;99.90;;;;;;5054705;28;20700;-59
2023/08/04 04:40:19;;;;;;;2.28;0.90;;;15.50;99.90;;;;;;5054836;28;20669;-60
2023/08/04 04:42:46;;;;;;;1.90;0.90;;;15.50;99.90;;;;;;5054971;28;20584;-62
2023/08/04 04:45:12;;;;;;;3.28;1.10;;;15.50;99.90;;;;;;5054707;28;20229;-61
2023/08/04 04:47:40;;;;;;;2.97;1.02;;;15.60;99.90;;;;;;5054602;28;20217;-59
2023/08/04 04:50:08;;;;;;;2.77;1.00;;;15.70;99.90;;;;;;5054929;28;20670;-59
2023/08/04 04:52:36;;;;;;;4.77;1.47;;;15.80;99.90;;;;;;5054982;28;20205;-60
2023/08/04 04:55:03;;;;;;;9.07;0.80;;;15.70;99.90;;;;;;5054661;28;20295;-58
2023/08/04 04:57:30;;;;;;;4.30;0.90;;;15.80;99.90;;;;;;5054595;28;20214;-60
2023/08/04 04:59:57;;;;;;;3.72;1.35;;;15.80;99.90;;;;;;5054807;28;20320;-60
2023/08/04 05:02:23;;;;;;;2.97;1.00;;;15.90;99.90;;;;;;5054442;28;20263;-60
2023/08/04 05:04:53;;;;;;;1.67;0.82;;;16.10;99.90;;;;;;5054583;28;20229;-60
2023/08/04 05:07:19;;;;;;;1.98;1.00;;;16.20;99.90;;;;;;5054295;28;20237;-60
2023/08/04 05:09:46;;;;;;;1.13;0.88;;;16.30;99.90;;;;;;5054478;28;20220;-59
2023/08/04 05:12:13;;;;;;;2.83;0.73;;;16.40;99.90;;;;;;5054400;28;20206;-60
2023/08/04 05:14:40;;;;;;;5.93;1.35;;;16.50;99.90;;;;;;5053947;28;20647;-60
2023/08/04 05:17:07;;;;;;;1.77;0.80;;;16.70;99.90;;;;;;5053906;28;20688;-59
2023/08/04 05:19:34;;;;;;;1.52;0.80;;;16.90;99.90;;;;;;5054291;28;20221;-61
2023/08/04 05:22:02;;;;;;;2.97;0.93;;;17.00;99.90;;;;;;5054236;28;20208;-61
2023/08/04 05:24:28;;;;;;;2.75;1.00;;;17.10;99.90;;;;;;5054096;28;20244;-61
2023/08/04 05:26:55;;;;;;;2.45;1.10;;;17.20;99.90;;;;;;5053815;28;20201;-61
2023/08/04 05:29:22;;;;;;;3.83;1.00;;;17.30;99.90;;;;;;5053943;28;20206;-59
2023/08/04 05:31:48;;;;;;;1.13;0.85;;;17.40;99.90;;;;;;5054145;28;20260;-59
2023/08/04 05:34:15;;;;;;;2.47;0.85;;;17.40;99.90;;;;;;5053864;28;20229;-59
2023/08/04 05:36:42;;;;;;;3.72;0.90;;;17.40;99.90;;;;;;5053409;28;20283;-59
2023/08/04 05:39:10;;;;;;;4.30;1.42;;;17.50;99.90;;;;;;5052715;28;20259;-60
2023/08/04 05:41:36;;;;;;;3.00;1.10;;;17.60;99.90;;;;;;5054014;28;20213;-60
2023/08/04 05:44:03;;;;;;;1.60;0.95;;;17.70;99.90;;;;;;5053445;28;20222;-60
2023/08/04 05:46:30;;;;;;;1.63;0.70;;;17.90;99.90;;;;;;5053673;28;20580;-60
2023/08/04 05:48:57;;;;;;;2.53;0.82;;;18.10;99.90;;;;;;5053835;28;20234;-60
2023/08/04 05:51:23;;;;;;;2.00;0.77;;;18.20;99.90;;;;;;5053669;28;20599;-60
2023/08/04 05:53:50;;;;;;;2.33;1.00;;;18.30;99.90;;;;;;5053587;28;20220;-60
2023/08/04 05:56:18;;;;;;;2.92;0.73;;;18.40;99.90;;;;;;5053198;28;20639;-60
2023/08/04 05:58:45;;;;;;;2.65;0.90;;;18.60;99.90;;;;;;5053484;28;20301;-60
2023/08/04 06:01:11;;;;;;;1.17;0.77;;;18.70;99.90;;;;;;5053627;28;20201;-60
2023/08/04 06:03:38;;;;;;;3.17;0.98;;;18.90;99.90;;;;;;5053496;28;20205;-60
2023/08/04 06:06:05;;;;;;;1.13;0.73;;;19.00;99.90;;;;;;5053126;28;20205;-60
2023/08/04 06:08:31;;;;;;;1.98;0.73;;;19.10;99.90;;;;;;5053192;28;20263;-60
2023/08/04 06:10:59;;;;;;;3.38;1.00;;;19.10;99.90;;;;;;5053157;28;20565;-60
2023/08/04 06:13:27;;;;;;;2.55;0.95;;;19.20;99.90;;;;;;5053173;28;20210;-60
2023/08/04 06:15:54;;;;;;;1.80;0.90;;;19.30;99.90;;;;;;5053052;28;20237;-60
2023/08/04 06:18:20;;;;;;;1.20;0.93;;;19.40;99.90;;;;;;5053071;28;20716;-60
2023/08/04 06:20:50;;;;;;;2.75;1.35;;;19.50;99.90;;;;;;5053109;28;20210;-60
2023/08/04 06:23:17;;;;;;;2.53;0.90;;;19.60;99.90;;;;;;5052920;28;20677;-59
2023/08/04 06:25:43;;;;;;;4.07;0.90;;;19.70;99.90;;;;;;5052658;28;20229;-60
2023/08/04 06:28:10;;;;;;;2.95;0.95;;;19.70;99.90;;;;;;5052982;28;20669;-60
2023/08/04 06:30:38;;;;;;;1.83;0.80;;;19.80;99.90;;;;;;5053056;28;20217;-60
2023/08/04 06:33:05;;;;;;;2.13;0.95;;;19.80;99.90;;;;;;5052958;28;20208;-60
2023/08/04 06:35:32;;;;;;;1.05;0.88;;;19.90;99.90;;;;;;5053034;28;20237;-58
2023/08/04 06:37:58;;;;;;;1.50;0.73;;;20.00;99.90;;;;;;5052596;28;20296;-59
2023/08/04 06:40:25;;;;;;;2.15;0.75;;;20.00;99.90;;;;;;5052594;28;20217;-58
2023/08/04 06:42:53;;;;;;;3.35;1.00;;;20.00;99.90;;;;;;5052860;28;20210;-59
2023/08/04 06:45:20;;;;;;;2.63;1.10;;;20.10;99.90;;;;;;5052704;28;20222;-59
2023/08/04 06:47:48;;;;;;;1.20;0.80;;;20.30;99.90;;;;;;5052432;28;20208;-57
2023/08/04 06:50:14;;;;;;;3.13;1.10;;;20.60;99.90;;;;;;5052431;28;20205;-58
2023/08/04 06:52:41;;;;;;;12.93;9.82;;;20.80;99.90;;;;;;5052389;28;20212;-58
2023/08/04 06:55:09;;;;;;;1.88;1.15;;;21.10;99.90;;;;;;5052433;28;20225;-58
2023/08/04 06:57:35;;;;;;;0.73;0.60;;;21.20;99.90;;;;;;5052120;28;20756;-60
2023/08/04 07:00:02;;;;;;;3.50;1.02;;;21.30;99.90;;;;;;5049522;28;20216;-63
2023/08/04 07:02:29;;;;;;;1.00;0.73;;;21.40;99.90;;;;;;5051307;28;20213;-58
2023/08/04 07:04:57;;;;;;;1.02;0.80;;;21.60;99.90;;;;;;5051432;28;20233;-60
2023/08/04 07:07:24;;;;;;;1.33;0.80;;;21.80;99.90;;;;;;5051785;28;20720;-62
2023/08/04 07:09:50;;;;;;;2.65;0.98;;;22.20;99.90;;;;;;5051082;28;20328;-62
2023/08/04 07:12:17;;;;;;;3.58;1.17;;;22.40;99.90;;;;;;5050752;28;20657;-61
2023/08/04 07:14:44;;;;;;;2.40;1.00;;;22.50;99.90;;;;;;5051298;28;20783;-62
2023/08/04 07:17:11;;;;;;;1.35;0.75;;;22.50;99.90;;;;;;5051247;28;20226;-61
2023/08/04 07:19:37;;;;;;;1.10;0.60;;;22.30;99.90;;;;;;5051243;28;20210;-61
2023/08/04 07:22:06;;;;;;;3.97;0.88;;;22.20;99.90;;;;;;5051559;28;20209;-59
2023/08/04 07:24:32;;;;;;;1.70;0.85;;;22.50;99.90;;;;;;5050877;28;20233;-60
2023/08/04 07:26:59;;;;;;;1.95;0.95;;;23.20;99.90;;;;;;5051051;28;20206;-60
2023/08/04 07:29:26;;;;;;;2.80;0.90;;;23.60;99.90;;;;;;5051000;28;20574;-61
2023/08/04 07:31:52;;;;;;;2.70;0.90;;;23.40;99.90;;;;;;5051216;28;20209;-59
2023/08/04 07:34:19;;;;;;;2.90;0.70;;;23.50;99.90;;;;;;5050801;28;20237;-62
2023/08/04 07:36:46;;;;;;;2.65;0.90;;;23.90;99.90;;;;;;5050170;28;20606;-63
2023/08/04 07:39:14;;;;;;;0.93;0.57;;;24.40;99.90;;;;;;5051548;28;20206;-60
2023/08/04 07:41:41;;;;;;;1.30;0.55;;;24.80;99.90;;;;;;5051209;28;20205;-61
2023/08/04 07:44:08;;;;;;;2.22;0.75;;;25.30;99.90;;;;;;5051252;28;20226;-61
2023/08/04 07:46:35;;;;;;;1.80;0.80;;;25.80;99.90;;;;;;5050510;28;20201;-61
2023/08/04 07:49:01;;;;;;;2.15;0.65;;;25.50;99.90;;;;;;5050397;28;20704;-59
2023/08/04 07:51:29;;;;;;;2.70;0.60;;;25.00;99.90;;;;;;5050814;28;20201;-63
2023/08/04 07:53:56;;;;;;;2.22;0.50;;;24.70;99.90;;;;;;5050804;28;20212;-60
2023/08/04 07:56:24;;;;;;;2.72;0.77;;;24.90;99.90;;;;;;5050646;28;20292;-62
2023/08/04 07:58:51;;;;;;;3.33;0.82;;;24.90;99.90;;;;;;5050655;28;20697;-59
2023/08/04 08:01:17;;;;;;;1.92;0.55;;;24.80;99.90;;;;;;5051416;28;20605;-61
2023/08/04 08:03:44;;;;;;;1.42;0.80;;;24.90;99.90;;;;;;5055016;28;20209;-62
2023/08/04 08:06:11;;;;;;;1.70;0.95;;;24.80;99.90;;;;;;5054590;28;20201;-62
2023/08/04 08:08:37;;;;;;;3.38;0.80;;;24.80;99.90;;;;;;5054388;28;20220;-60
2023/08/04 08:11:08;;;;;;;1.25;0.80;;;24.50;99.90;;;;;;5051651;28;20213;-62
2023/08/04 08:13:37;;;;;;;1.60;0.93;;;24.40;99.90;;;;;;5052500;28;20209;-60
2023/08/04 08:16:08;;;;;;;1.50;0.55;;;24.50;99.90;;;;;;5053965;28;20221;-61
2023/08/04 08:18:35;;;;;;;3.45;0.93;;;24.70;99.90;;;;;;5054641;28;20209;-60
2023/08/04 08:21:05;;;;;;;2.47;1.00;;;24.70;99.90;;;;;;5054735;28;20212;-60
2023/08/04 08:23:31;;;;;;;1.35;0.60;;;24.90;99.90;;;;;;5052801;28;20205;-63
2023/08/04 08:25:58;;;;;;;2.75;0.65;;;25.10;99.90;;;;;;5053448;28;20715;-62
2023/08/04 08:28:25;;;;;;;1.20;0.55;;;25.70;99.90;;;;;;5054199;28;20684;-59
2023/08/04 08:30:53;;;;;;;1.33;0.60;;;26.10;99.90;;;;;;5054466;28;20232;-59
2023/08/04 08:33:19;;;;;;;1.48;0.70;;;26.50;99.90;;;;;;5052790;28;20209;-62
2023/08/04 08:35:47;;;;;;;2.00;0.50;;;27.20;99.90;;;;;;5053270;28;20237;-59
2023/08/04 08:38:14;;;;;;;1.42;0.57;;;28.10;99.90;;;;;;5053839;28;20209;-59
2023/08/04 08:40:40;;;;;;;1.52;0.57;;;28.30;99.60;;;;;;5054060;28;20209;-57
2023/08/04 08:43:07;;;;;;;1.48;0.73;;;27.90;99.60;;;;;;5053692;28;20239;-58
2023/08/04 08:45:35;;;;;;;1.95;0.60;;;28.10;98.70;;;;;;5053919;28;20229;-60
2023/08/04 08:48:05;;;;;;;1.65;0.70;;;27.50;98.70;;;;;;5053839;28;20210;-58
2023/08/04 08:50:33;;;;;;;2.33;0.63;;;27.30;99.30;;;;;;5053727;28;20213;-58
2023/08/04 08:53:09;;;;;;;0.90;0.50;;;27.40;99.00;;;;;;5053926;28;20210;-57
2023/08/04 08:55:36;;;;;;;2.60;0.50;;;27.20;98.60;;;;;;5053382;28;20225;-60
2023/08/04 08:58:04;;;;;;;1.85;0.65;;;26.80;99.60;;;;;;5053617;28;20266;-63
2023/08/04 09:00:31;;;;;;;1.90;0.80;;;27.00;98.90;;;;;;5053629;28;20205;-58
2023/08/04 09:02:58;;;;;;;1.77;0.90;;;27.50;98.60;;;;;;5053450;28;20206;-62
2023/08/04 09:05:26;;;;;;;0.75;0.60;;;28.10;97.50;;;;;;5051874;28;20233;-61
2023/08/04 09:07:53;;;;;;;2.05;0.65;;;28.20;96.70;;;;;;5053009;28;20221;-61
2023/08/04 09:10:21;;;;;;;1.65;0.50;;;27.70;97.00;;;;;;5053140;28;20210;-59
2023/08/04 09:12:49;;;;;;;5.63;0.73;;;27.00;97.90;;;;;;5053002;28;20566;-58
2023/08/04 09:15:15;;;;;;;2.03;0.68;;;26.90;98.50;;;;;;5053226;28;20291;-59
2023/08/04 09:17:44;;;;;;;1.08;0.73;;;26.90;99.00;;;;;;5053063;28;20236;-61
2023/08/04 09:20:28;;;;;;;1.65;0.70;;;26.90;98.90;;;;;;5053318;28;20213;-57
2023/08/04 09:22:55;;;;;;;2.63;1.80;;;26.80;99.20;;;;;;5053129;28;20298;-57
2023/08/04 09:25:22;;;;;;;1.42;0.68;;;26.60;99.30;;;;;;5052578;28;20233;-58
2023/08/04 09:27:50;;;;;;;1.75;0.68;;;26.20;99.90;;;;;;5052996;28;20251;-58
2023/08/04 09:30:18;;;;;;;1.17;0.60;;;26.10;99.90;;;;;;5053110;28;20202;-58
2023/08/04 09:32:47;;;;;;;3.45;0.80;;;25.90;99.90;;;;;;5053029;28;20209;-57
2023/08/04 09:35:14;;;;;;;2.00;0.80;;;25.60;99.90;;;;;;5052646;28;20265;-57
2023/08/04 09:37:43;;;;;;;3.05;0.63;;;25.20;99.90;;;;;;5052444;28;20701;-58
2023/08/04 09:40:16;;;;;;;2.80;0.73;;;25.20;99.90;;;;;;5052903;28;20237;-58
2023/08/04 09:42:42;;;;;;;0.82;0.52;;;25.00;99.90;;;;;;5052989;28;20224;-59
2023/08/04 09:45:13;;;;;;;0.77;0.52;;;25.20;99.90;;;;;;5052912;28;20233;-58
2023/08/04 09:47:39;;;;;;;1.40;0.50;;;25.10;99.90;;;;;;5052469;28;20243;-59
2023/08/04 09:50:10;;;;;;;2.00;0.90;;;24.90;99.90;;;;;;5052710;28;20216;-58
2023/08/04 09:52:37;;;;;;;1.73;0.50;;;24.80;99.90;;;;;;5053078;28;20428;-58
2023/08/04 09:55:09;;;;;;;3.10;0.95;;;24.70;99.90;;;;;;5053033;28;20248;-58
2023/08/04 09:57:36;;;;;;;1.80;0.73;;;24.50;99.90;;;;;;5052396;28;20308;-57
2023/08/04 10:00:05;;;;;;;1.35;0.73;;;24.20;99.90;;;;;;5052483;28;20217;-61
2023/08/04 10:02:33;;;;;;;1.42;0.60;;;24.00;99.90;;;;;;5052796;28;20210;-59
2023/08/04 10:05:01;;;;;;;2.83;0.80;;;23.80;99.90;;;;;;5052736;28;20226;-59
2023/08/04 10:07:29;;;;;;;2.78;1.50;;;23.70;99.90;;;;;;5052098;28;20650;-59
2023/08/04 10:09:56;;;;;;;1.77;1.02;;;23.50;99.90;;;;;;5052126;28;20608;-57
2023/08/04 10:12:25;;;;;;;1.33;0.60;;;23.40;99.90;;;;;;5052278;28;20488;-61
2023/08/04 10:14:52;;;;;;;2.50;0.75;;;23.40;99.90;;;;;;5051691;28;20244;-59
2023/08/04 10:17:19;;;;;;;3.92;0.90;;;23.40;99.90;;;;;;5051991;28;20232;-58
2023/08/04 10:19:46;;;;;;;1.38;0.70;;;23.70;99.90;;;;;;5051993;28;20603;-59
2023/08/04 10:22:13;;;;;;;1.40;0.90;;;24.00;99.90;;;;;;5052118;28;20650;-58
2023/08/04 10:24:42;;;;;;;1.75;0.57;;;24.40;99.90;;;;;;5051096;28;20716;-59
2023/08/04 10:27:18;;;;;;;1.10;0.70;;;24.40;99.90;;;;;;5051037;28;20206;-57
2023/08/04 10:30:00;;;;;;;1.35;0.65;;;24.30;99.90;;;;;;5051968;28;20580;-57
2023/08/04 10:32:35;;;;;;;1.42;0.70;;;24.20;99.90;;;;;;5052143;28;20216;-57
2023/08/04 10:35:02;;;;;;;5.72;0.90;;;24.30;99.90;;;;;;5051598;28;20267;-58
2023/08/04 10:37:28;;;;;;;3.10;0.82;;;24.60;99.90;;;;;;5051356;28;20232;-57
2023/08/04 10:39:59;;;;;;;1.75;1.00;;;24.80;99.90;;;;;;5051073;28;20704;-57
2023/08/04 10:42:27;;;;;;;2.80;0.90;;;25.00;99.90;;;;;;5051868;28;20519;-57
2023/08/04 10:44:57;;;;;;;2.97;0.88;;;25.30;99.90;;;;;;5051801;28;20253;-58
2023/08/04 10:47:36;;;;;;;1.70;0.95;;;25.40;99.90;;;;;;5051438;28;20208;-57
2023/08/04 10:50:04;;;;;;;4.88;0.70;;;25.40;99.90;;;;;;5051425;28;20240;-58
2023/08/04 10:52:31;;;;;;;5.18;1.20;;;25.40;99.90;;;;;;5051354;28;20202;-57
2023/08/04 10:54:59;;;;;;;3.08;1.60;;;25.20;99.90;;;;;;5051630;28;20225;-57
2023/08/04 10:57:28;;;;;;;1.40;0.90;;;25.30;99.90;;;;;;5051161;28;20222;-57
2023/08/04 10:59:56;;;;;;;2.63;1.10;;;25.50;99.90;;;;;;5051406;28;20712;-57
2023/08/04 11:02:24;;;;;;;3.42;1.30;;;25.60;99.90;;;;;;5051311;28;20654;-58
2023/08/04 11:04:52;;;;;;;1.85;0.80;;;25.80;99.90;;;;;;5050735;28;20229;-58
2023/08/04 11:07:20;;;;;;;2.55;0.70;;;26.20;99.90;;;;;;5051357;28;20220;-57
2023/08/04 11:09:47;;;;;;;5.53;1.13;;;26.40;99.90;;;;;;5051525;28;20205;-56
2023/08/04 11:12:15;;;;;;;2.10;0.85;;;26.40;99.90;;;;;;5051331;28;20206;-58
2023/08/04 11:14:42;;;;;;;0.90;0.50;;;26.30;99.90;;;;;;5051117;28;20225;-61
2023/08/04 11:17:14;;;;;;;2.55;0.80;;;26.20;99.90;;;;;;5050378;28;20226;-59
2023/08/04 11:19:43;;;;;;;4.70;0.70;;;26.00;99.90;;;;;;5050807;28;20693;-59
2023/08/04 11:22:12;;;;;;;3.15;0.70;;;26.00;99.90;;;;;;5052135;28;20210;-61
2023/08/04 11:24:39;;;;;;;1.92;1.40;;;25.90;99.90;;;;;;5053627;28;20256;-62
2023/08/04 11:27:06;;;;;;;1.42;0.80;;;25.90;99.90;;;;;;5050935;28;20205;-59
2023/08/04 11:29:33;;;;;;;2.05;0.68;;;25.90;99.90;;;;;;5051912;28;20754;-61
2023/08/04 11:32:00;;;;;;;2.65;0.88;;;25.70;99.90;;;;;;5052752;28;20311;-62
2023/08/04 11:34:29;;;;;;;3.08;1.20;;;25.30;99.90;;;;;;5053372;28;20233;-62
2023/08/04 11:36:56;;;;;;;3.15;0.80;;;24.80;99.90;;;;;;5054565;28;20230;-65
2023/08/04 11:39:22;;;;;;;2.05;0.82;;;24.60;99.90;;;;;;5052703;28;20205;-64
2023/08/04 11:41:49;;;;;;;1.35;0.85;;;24.80;99.90;;;;;;5051162;28;20209;-59
2023/08/04 11:44:16;;;;;;;3.42;1.42;;;24.90;99.90;;;;;;5051038;28;20232;-61
2023/08/04 11:46:43;;;;;;;4.60;1.08;;;25.20;99.90;;;;;;5051858;28;20232;-58
2023/08/04 11:49:09;;;;;;;1.20;0.70;;;25.50;99.90;;;;;;5052180;28;20237;-58
2023/08/04 11:51:43;;;;;;;6.30;0.70;;;25.80;99.90;;;;;;5051792;28;20282;-55
2023/08/04 11:54:17;;;;;;;1.90;0.65;;;25.70;99.90;;;;;;5051593;28;20260;-57
2023/08/04 11:56:44;;;;;;;1.17;0.55;;;25.50;99.90;;;;;;5051222;28;20367;-57
2023/08/04 11:59:11;;;;;;;1.20;0.80;;;25.40;99.90;;;;;;5051563;28;20263;-55
2023/08/04 12:01:39;;;;;;;0.90;0.60;;;25.20;99.90;;;;;;5051767;28;20209;-57
2023/08/04 12:04:20;;;;;;;1.02;0.50;;;24.90;99.90;;;;;;5051857;28;20221;-55
2023/08/04 12:06:49;;;;;;;2.75;0.98;;;24.60;99.90;;;;;;5051357;28;20201;-56
2023/08/04 12:09:19;;;;;;;2.42;1.10;;;24.50;99.90;;;;;;5051625;28;20295;-56
2023/08/04 12:11:51;;;;;;;1.85;0.70;;;24.40;99.90;;;;;;5051789;28;20213;-56
2023/08/04 12:14:19;;;;;;;1.63;0.70;;;24.30;99.90;;;;;;5051396;28;20236;-55
2023/08/04 12:16:50;;;;;;;2.17;1.40;;;24.30;99.90;;;;;;5051232;28;20208;-56
2023/08/04 12:19:17;;;;;;;2.28;0.95;;;24.20;99.90;;;;;;5051350;28;20202;-56
2023/08/04 12:21:44;;;;;;;3.78;0.80;;;24.00;99.90;;;;;;5051487;28;20232;-56
2023/08/04 12:24:13;;;;;;;3.78;0.68;;;23.90;99.90;;;;;;5051570;28;20225;-57
2023/08/04 12:26:41;;;;;;;2.20;0.90;;;23.90;99.90;;;;;;5051238;28;20680;-56
2023/08/04 12:29:07;;;;;;;1.80;0.70;;;23.80;99.90;;;;;;5051593;28;20209;-56
2023/08/04 12:31:34;;;;;;;1.20;0.68;;;23.60;99.90;;;;;;5051404;28;20205;-56
2023/08/04 12:34:01;;;;;;;1.70;0.70;;;23.50;99.90;;;;;;5051250;28;20237;-58
2023/08/04 12:36:27;;;;;;;1.95;0.80;;;23.50;99.90;;;;;;5051563;28;20561;-57
2023/08/04 12:38:54;;;;;;;2.53;0.80;;;23.50;99.90;;;;;;5051408;28;20230;-56
2023/08/04 12:41:22;;;;;;;1.90;0.70;;;23.60;99.90;;;;;;5051293;28;20213;-56
2023/08/04 12:43:49;;;;;;;1.65;0.90;;;23.70;99.90;;;;;;5051329;28;20567;-56
2023/08/04 12:46:15;;;;;;;2.70;1.13;;;23.70;99.90;;;;;;5051049;28;20210;-57
2023/08/04 12:48:42;;;;;;;2.75;0.80;;;24.00;99.90;;;;;;5054674;28;20202;-56